createdAt,value
2023-04-16T07:38:01.444Z,16.88
2023-04-16T07:40:30.910Z,19.17
2023-04-16T07:43:00.242Z,20.90
2023-04-16T07:45:29.154Z,20.05
2023-04-16T07:47:58.350Z,18.77
2023-04-16T07:50:27.489Z,18.77
2023-04-16T07:52:56.480Z,17.70
2023-04-16T07:55:27.226Z,17.20
2023-04-16T07:57:59.440Z,17.50
2023-04-16T08:00:28.518Z,18.13
2023-04-16T08:02:57.909Z,17.60
2023-04-16T08:05:27.055Z,18.25
2023-04-16T08:07:56.227Z,17.42
2023-04-16T08:10:27.780Z,16.05
2023-04-16T08:12:56.992Z,17.63
2023-04-16T08:15:26.028Z,17.88
2023-04-16T08:17:55.165Z,17.08
2023-04-16T08:20:24.281Z,17.05
2023-04-16T08:22:54.886Z,16.92
2023-04-16T08:25:25.132Z,17.48
2023-04-16T08:27:55.637Z,17.13
2023-04-16T08:30:24.881Z,16.40
2023-04-16T08:32:54.772Z,14.93
2023-04-16T08:35:23.957Z,15.00
2023-04-16T08:37:54.158Z,16.20
2023-04-16T08:40:23.327Z,15.52
2023-04-16T08:42:57.326Z,15.50
2023-04-16T08:45:27.892Z,15.40
2023-04-16T08:47:57.017Z,15.05
2023-04-16T08:50:27.524Z,15.98
2023-04-16T08:53:01.161Z,15.18
2023-04-16T08:55:38.043Z,15.38
2023-04-16T08:58:11.432Z,15.38
2023-04-16T09:00:42.440Z,15.10
2023-04-16T09:03:12.361Z,15.82
2023-04-16T09:05:43.400Z,16.33
2023-04-16T09:08:12.958Z,16.20
2023-04-16T09:10:42.488Z,16.25
2023-04-16T09:13:13.762Z,14.70
2023-04-16T09:15:43.757Z,14.73
2023-04-16T09:18:13.008Z,15.65
2023-04-16T09:20:42.130Z,15.77
2023-04-16T09:23:12.199Z,15.43
2023-04-16T09:25:41.279Z,16.05
2023-04-16T09:28:12.723Z,15.30
2023-04-16T09:30:41.913Z,14.65
2023-04-16T09:33:16.924Z,15.18
2023-04-16T09:35:49.697Z,14.05
2023-04-16T09:38:19.244Z,14.88
2023-04-16T09:40:48.917Z,15.05
2023-04-16T09:43:20.529Z,14.52
2023-04-16T09:45:53.838Z,14.40
2023-04-16T09:48:31.446Z,14.48
2023-04-16T09:51:01.771Z,13.65
2023-04-16T09:53:31.994Z,13.93
2023-04-16T09:56:02.677Z,14.15
2023-04-16T09:58:33.546Z,14.02
2023-04-16T10:01:03.772Z,14.05
2023-04-16T10:03:33.905Z,15.23
2023-04-16T10:06:08.686Z,13.48
2023-04-16T10:08:37.833Z,13.90
2023-04-16T10:11:07.238Z,13.35
2023-04-16T10:13:37.736Z,13.77
2023-04-16T10:16:08.006Z,13.57
2023-04-16T10:18:39.007Z,14.43
2023-04-16T10:21:08.927Z,14.18
2023-04-16T10:23:38.172Z,13.35
2023-04-16T10:26:41.093Z,13.15
2023-04-16T10:29:13.642Z,13.60
2023-04-16T10:31:43.886Z,13.48
2023-04-16T10:34:13.881Z,14.70
2023-04-16T10:36:43.221Z,13.35
2023-04-16T10:39:16.889Z,13.82
2023-04-16T10:41:47.397Z,13.40
2023-04-16T10:44:20.057Z,14.70
2023-04-16T10:46:51.042Z,13.23
2023-04-16T10:49:21.656Z,14.05
2023-04-16T10:51:58.398Z,14.00
2023-04-16T10:54:29.162Z,13.82
2023-04-16T10:57:01.636Z,13.27
2023-04-16T10:59:35.295Z,13.45
2023-04-16T11:02:09.520Z,14.18
2023-04-16T11:04:40.336Z,12.98
2023-04-16T11:07:17.204Z,13.98
2023-04-16T11:09:48.330Z,13.57
2023-04-16T11:12:18.874Z,13.25
2023-04-16T11:14:52.169Z,14.10
2023-04-16T11:17:21.815Z,14.55
2023-04-16T11:19:51.019Z,14.40
2023-04-16T11:22:23.369Z,13.73
2023-04-16T11:24:56.521Z,14.30
2023-04-16T11:27:25.838Z,13.13
2023-04-16T11:30:04.640Z,13.88
2023-04-16T11:32:34.828Z,13.52
2023-04-16T11:35:05.579Z,13.77
2023-04-16T11:37:35.514Z,15.30
2023-04-16T11:40:07.307Z,13.95
2023-04-16T11:42:38.283Z,13.43
2023-04-16T11:45:10.719Z,12.90
2023-04-16T11:47:47.428Z,14.70
2023-04-16T11:50:21.488Z,12.98
2023-04-16T11:52:51.079Z,14.48
2023-04-16T11:55:21.082Z,14.38
2023-04-16T11:57:50.894Z,14.20
2023-04-16T12:00:24.597Z,19.02
2023-04-16T12:02:55.661Z,17.13
2023-04-16T12:05:32.647Z,14.93
2023-04-16T12:08:03.496Z,15.90
2023-04-16T12:10:35.215Z,14.93
2023-04-16T12:13:14.321Z,14.70
2023-04-16T12:15:49.442Z,14.30
2023-04-16T12:18:19.128Z,15.95
2023-04-16T12:20:48.964Z,15.77
2023-04-16T12:23:28.321Z,23.23
2023-04-16T12:25:59.957Z,16.92
2023-04-16T12:28:31.443Z,19.63
2023-04-16T12:31:02.920Z,18.13
2023-04-16T12:33:32.652Z,16.95
2023-04-16T12:36:02.220Z,16.77
2023-04-16T12:38:32.247Z,17.17
2023-04-16T12:41:02.480Z,18.00
2023-04-16T12:43:31.610Z,17.90
2023-04-16T12:46:04.160Z,15.68
2023-04-16T12:48:34.074Z,15.38
2023-04-16T12:51:03.156Z,14.45
2023-04-16T12:53:32.166Z,13.38
2023-04-16T12:56:01.211Z,13.20
2023-04-16T12:58:30.719Z,14.02
2023-04-16T13:01:02.032Z,15.68
2023-04-16T13:03:31.482Z,14.25
2023-04-16T13:06:02.522Z,15.20
2023-04-16T13:08:32.999Z,15.07
2023-04-16T13:11:02.292Z,15.27
2023-04-16T13:13:31.443Z,14.85
2023-04-16T13:16:09.721Z,15.23
2023-04-16T13:18:40.404Z,15.75
2023-04-16T13:21:10.365Z,13.82
2023-04-16T13:23:39.379Z,12.52
2023-04-16T13:26:08.558Z,11.70
2023-04-16T13:28:39.699Z,13.40
2023-04-16T13:31:10.581Z,11.88
2023-04-16T13:33:40.384Z,12.05
2023-04-16T13:36:09.643Z,11.57
2023-04-16T13:38:38.811Z,11.82
2023-04-16T13:41:08.085Z,13.25
2023-04-16T13:43:37.311Z,16.95
2023-04-16T13:46:06.590Z,13.73
2023-04-16T13:48:37.204Z,12.88
2023-04-16T13:51:06.394Z,10.93
2023-04-16T13:53:35.605Z,12.55
2023-04-16T13:56:05.320Z,10.43
2023-04-16T13:58:34.626Z,10.45
2023-04-16T14:01:04.062Z,10.15
2023-04-16T14:03:36.429Z,10.77
2023-04-16T14:06:07.595Z,10.68
2023-04-16T14:08:36.874Z,10.60
2023-04-16T14:11:06.708Z,9.98
2023-04-16T14:13:35.669Z,9.95
2023-04-16T14:16:05.112Z,13.98
2023-04-16T14:18:34.256Z,12.90
2023-04-16T14:21:03.716Z,12.20
2023-04-16T14:23:34.476Z,12.45
2023-04-16T14:26:03.918Z,12.50
2023-04-16T14:28:32.879Z,11.38
2023-04-16T14:31:01.991Z,12.20
2023-04-16T14:33:32.753Z,11.32
2023-04-16T14:36:03.194Z,11.60
2023-04-16T14:38:34.875Z,13.43
2023-04-16T14:41:03.920Z,12.32
2023-04-16T14:43:32.901Z,11.68
2023-04-16T14:46:02.507Z,13.25
2023-04-16T14:48:32.235Z,12.13
2023-04-16T14:51:01.583Z,10.13
2023-04-16T14:53:30.881Z,14.27
2023-04-16T14:56:01.971Z,12.57
2023-04-16T14:58:31.680Z,13.27
2023-04-16T15:01:01.186Z,13.27
2023-04-16T15:03:31.474Z,13.65
2023-04-16T15:06:00.738Z,11.88
2023-04-16T15:08:29.927Z,11.50
2023-04-16T15:10:58.918Z,11.55
2023-04-16T15:13:34.206Z,11.55
2023-04-16T15:18:32.181Z,11.40
2023-04-16T15:21:01.323Z,11.73
2023-04-16T15:23:30.631Z,11.52
2023-04-16T15:26:00.358Z,11.27
2023-04-16T15:28:31.238Z,11.57
2023-04-16T15:31:00.471Z,11.27
2023-04-16T15:33:29.684Z,11.23
2023-04-16T15:35:59.352Z,11.57
2023-04-16T15:38:30.010Z,12.20
2023-04-16T15:41:01.098Z,11.60
2023-04-16T15:43:32.032Z,10.90
2023-04-16T15:46:01.200Z,12.07
2023-04-16T15:48:30.565Z,11.30
2023-04-16T15:51:00.046Z,10.82
2023-04-16T15:53:29.632Z,11.73
2023-04-16T15:55:58.654Z,12.27
2023-04-16T15:58:27.872Z,13.00
2023-04-16T16:00:58.444Z,12.30
2023-04-16T16:03:28.153Z,12.27
2023-04-16T16:05:59.337Z,12.82
2023-04-16T16:08:34.697Z,11.82
2023-04-16T16:11:04.206Z,13.73
2023-04-16T16:13:33.641Z,13.13
2023-04-16T16:16:04.295Z,12.73
2023-04-16T16:18:33.983Z,12.25
2023-04-16T16:21:03.254Z,13.13
2023-04-16T16:23:32.248Z,13.30
2023-04-16T16:26:01.873Z,13.80
2023-04-16T16:28:31.159Z,11.85
2023-04-16T16:31:01.711Z,13.93
2023-04-16T16:33:32.731Z,11.80
2023-04-16T16:36:02.214Z,13.10
2023-04-16T16:38:31.444Z,14.30
2023-04-16T16:41:00.525Z,12.73
2023-04-16T16:43:29.910Z,13.18
2023-04-16T16:45:58.888Z,14.05
2023-04-16T16:48:28.158Z,12.98
2023-04-16T16:50:59.170Z,13.10
2023-04-16T16:53:28.409Z,13.05
2023-04-16T16:55:57.424Z,15.57
2023-04-16T16:58:27.844Z,14.90
2023-04-16T17:00:58.090Z,14.82
2023-04-16T17:03:27.315Z,14.45
2023-04-16T17:05:57.808Z,13.48
2023-04-16T17:08:27.052Z,16.40
2023-04-16T17:10:56.886Z,15.55
2023-04-16T17:13:26.121Z,15.68
2023-04-16T17:15:55.451Z,16.75
2023-04-16T17:18:24.491Z,16.42
2023-04-16T17:20:53.573Z,17.88
2023-04-16T17:23:24.329Z,16.13
2023-04-16T17:25:53.968Z,18.52
2023-04-16T17:28:23.085Z,20.27
2023-04-16T17:30:54.085Z,18.40
2023-04-16T17:33:23.210Z,19.90
2023-04-16T17:35:52.366Z,20.80
2023-04-16T17:38:21.406Z,21.38
2023-04-16T17:40:52.183Z,18.77
2023-04-16T17:43:21.733Z,20.70
2023-04-16T17:45:51.418Z,21.25
2023-04-16T17:48:21.124Z,20.27
2023-04-16T17:50:50.367Z,22.17
2023-04-16T17:53:19.486Z,19.50
2023-04-16T17:55:56.494Z,17.95
2023-04-16T17:58:26.798Z,20.48
2023-04-16T18:00:56.607Z,20.35
2023-04-16T18:03:26.434Z,19.98
2023-04-16T18:05:55.799Z,22.13
2023-04-16T18:08:25.515Z,22.20
2023-04-16T18:10:57.467Z,22.25
2023-04-16T18:13:27.720Z,21.60
2023-04-16T18:15:58.278Z,21.77
2023-04-16T18:18:28.014Z,21.45
2023-04-16T18:20:57.927Z,21.67
2023-04-16T18:23:27.623Z,21.17
2023-04-16T18:25:58.920Z,18.23
2023-04-16T18:28:28.885Z,19.50
2023-04-16T18:30:59.090Z,18.50
2023-04-16T18:33:52.589Z,18.95
2023-04-16T18:36:18.081Z,20.95
2023-04-16T18:38:59.980Z,20.92
2023-04-16T18:41:32.647Z,19.60
2023-04-16T18:44:02.553Z,21.05
2023-04-16T18:46:31.991Z,20.90
2023-04-16T18:49:01.405Z,18.83
2023-04-16T18:51:31.074Z,20.75
2023-04-16T18:54:00.529Z,23.65
2023-04-16T18:56:32.980Z,22.60
2023-04-16T18:59:02.326Z,23.65
2023-04-16T19:01:31.821Z,24.27
2023-04-16T19:04:01.891Z,23.92
2023-04-16T19:06:32.606Z,23.70
2023-04-16T19:09:01.994Z,25.10
2023-04-16T19:11:33.082Z,23.50
2023-04-16T19:14:03.881Z,22.48
2023-04-16T19:16:33.582Z,23.15
2023-04-16T19:19:02.894Z,22.27
2023-04-16T19:21:33.253Z,24.17
2023-04-16T19:24:02.611Z,25.00
2023-04-16T19:26:33.484Z,25.23
2023-04-16T19:29:02.766Z,23.95
2023-04-16T19:31:31.806Z,24.52
2023-04-16T19:34:01.126Z,23.17
2023-04-16T19:36:30.493Z,26.42
2023-04-16T19:38:59.520Z,23.98
2023-04-16T19:41:28.671Z,23.60
2023-04-16T19:43:59.189Z,24.20
2023-04-16T19:46:28.726Z,25.60
2023-04-16T19:48:58.155Z,22.98
2023-04-16T19:51:27.565Z,22.60
2023-04-16T19:53:59.047Z,21.88
2023-04-16T19:56:28.360Z,22.98
2023-04-16T19:58:59.246Z,22.90
2023-04-16T20:01:28.665Z,22.67
2023-04-16T20:03:57.787Z,22.88
2023-04-16T20:06:27.205Z,23.25
2023-04-16T20:08:57.599Z,22.80
2023-04-16T20:11:26.920Z,22.60
2023-04-16T20:13:56.445Z,23.48
2023-04-16T20:16:27.330Z,22.35
2023-04-16T20:18:57.374Z,22.92
2023-04-16T20:21:26.568Z,26.40
2023-04-16T20:23:56.118Z,25.33
2023-04-16T20:26:28.646Z,29.60
2023-04-16T20:28:57.583Z,27.92
2023-04-16T20:31:28.538Z,28.73
2023-04-16T20:33:57.709Z,27.10
2023-04-16T20:36:28.163Z,26.25
2023-04-16T20:38:57.232Z,26.00
2023-04-16T20:41:27.558Z,22.00
2023-04-16T20:43:56.715Z,23.48
2023-04-16T20:46:30.403Z,23.50
2023-04-16T20:49:01.534Z,23.83
2023-04-16T20:51:31.797Z,22.23
2023-04-16T20:54:01.366Z,22.92
2023-04-16T20:56:30.271Z,21.45
2023-04-16T20:58:59.592Z,22.20
